createdAt,value
2023-04-01T00:01:49.011Z,23.38
2023-04-01T00:04:16.869Z,26.08
2023-04-01T00:06:44.418Z,22.42
2023-04-01T00:09:11.841Z,27.73
2023-04-01T00:11:39.507Z,24.58
2023-04-01T00:14:07.766Z,28.15
2023-04-01T00:16:34.839Z,23.65
2023-04-01T00:19:02.230Z,23.95
2023-04-01T00:21:29.107Z,26.88
2023-04-01T00:23:56.926Z,24.98
2023-04-01T00:26:23.811Z,27.75
2023-04-01T00:28:52.068Z,28.13
2023-04-01T00:31:19.638Z,26.05
2023-04-01T00:33:46.863Z,25.00
2023-04-01T00:36:20.346Z,26.60
2023-04-01T00:38:48.005Z,26.95
2023-04-01T00:41:18.056Z,27.23
2023-04-01T00:43:48.176Z,35.00
2023-04-01T00:46:15.756Z,26.35
2023-04-01T00:48:48.475Z,32.17
2023-04-01T00:51:18.499Z,27.85
2023-04-01T00:53:49.487Z,29.00
2023-04-01T00:56:20.887Z,30.33
2023-04-01T01:01:19.876Z,29.10
2023-04-01T01:03:47.083Z,27.95
2023-04-01T01:06:26.766Z,31.55
2023-04-01T01:09:15.389Z,25.92
2023-04-01T01:11:48.344Z,34.10
2023-04-01T01:14:38.692Z,29.48
2023-04-01T01:17:45.399Z,29.30
2023-04-01T01:20:41.664Z,30.10
2023-04-01T01:23:46.245Z,26.77
2023-04-01T01:26:50.225Z,30.55
2023-04-01T01:29:29.581Z,30.67
2023-04-01T01:32:12.495Z,29.02
2023-04-01T01:34:54.223Z,30.40
2023-04-01T01:37:26.154Z,28.52
2023-04-01T01:39:59.342Z,29.73
2023-04-01T01:42:28.644Z,26.52
2023-04-01T01:44:58.944Z,35.88
2023-04-01T01:47:27.996Z,32.13
2023-04-01T01:49:56.305Z,34.42
2023-04-01T01:52:25.000Z,30.77
2023-04-01T01:54:57.648Z,27.48
2023-04-01T01:57:32.833Z,26.88
2023-04-01T02:00:13.919Z,28.98
2023-04-01T02:05:17.110Z,24.95
2023-04-01T02:07:50.516Z,28.17
2023-04-01T02:10:18.906Z,29.00
2023-04-01T02:12:48.021Z,31.42
2023-04-01T02:15:17.110Z,26.17
2023-04-01T02:17:46.978Z,30.70
2023-04-01T02:20:18.655Z,26.88
2023-04-01T02:22:51.191Z,24.48
2023-04-01T02:25:26.558Z,29.98
2023-04-01T02:27:55.875Z,27.50
2023-04-01T02:30:24.327Z,33.40
2023-04-01T02:32:51.830Z,34.38
2023-04-01T02:35:19.235Z,32.20
2023-04-01T02:37:49.578Z,33.08
2023-04-01T02:40:17.901Z,34.10
2023-04-01T02:42:46.766Z,26.50
2023-04-01T02:45:14.817Z,29.25
2023-04-01T02:47:42.663Z,30.30
2023-04-01T02:50:11.078Z,29.63
2023-04-01T02:52:38.445Z,31.33
2023-04-01T02:55:06.796Z,37.97
2023-04-01T02:57:34.177Z,33.47
2023-04-01T03:00:01.171Z,39.78
2023-04-01T03:02:28.879Z,35.40
2023-04-01T03:04:56.122Z,38.22
2023-04-01T03:07:23.379Z,40.40
2023-04-01T03:09:50.422Z,34.30
2023-04-01T03:12:17.778Z,34.08
2023-04-01T03:14:50.732Z,38.83
2023-04-01T03:17:18.152Z,36.10
2023-04-01T03:19:45.791Z,39.72
2023-04-01T03:22:13.312Z,39.53
2023-04-01T03:24:40.375Z,39.03
2023-04-01T03:27:07.528Z,38.05
2023-04-01T03:29:34.614Z,38.20
2023-04-01T03:32:01.990Z,36.45
2023-04-01T03:34:28.981Z,34.97
2023-04-01T03:36:56.357Z,33.13
2023-04-01T03:39:23.419Z,36.97
2023-04-01T03:41:51.177Z,39.03
2023-04-01T03:44:18.317Z,37.42
2023-04-01T03:46:49.027Z,33.77
2023-04-01T03:49:16.200Z,34.10
2023-04-01T03:51:44.584Z,34.97
2023-04-01T03:54:12.660Z,37.83
2023-04-01T03:56:40.578Z,36.88
2023-04-01T03:59:08.817Z,40.90
2023-04-01T04:01:36.200Z,35.22
2023-04-01T04:04:03.447Z,35.50
2023-04-01T04:06:30.819Z,37.00
2023-04-01T04:08:58.013Z,33.08
2023-04-01T04:11:25.309Z,34.88
2023-04-01T04:13:54.038Z,32.17
2023-04-01T04:16:22.264Z,30.23
2023-04-01T04:18:55.995Z,28.42
2023-04-01T04:21:23.996Z,30.10
2023-04-01T04:23:52.549Z,30.75
2023-04-01T04:26:21.246Z,33.30
2023-04-01T04:28:56.416Z,34.80
2023-04-01T04:31:25.316Z,28.13
2023-04-01T04:33:54.187Z,30.13
2023-04-01T04:36:22.964Z,29.17
2023-04-01T04:38:51.545Z,23.50
2023-04-01T04:41:20.382Z,25.52
2023-04-01T04:43:55.538Z,23.07
2023-04-01T04:46:24.601Z,25.23
2023-04-01T04:48:58.290Z,22.40
2023-04-01T04:51:26.087Z,22.05
2023-04-01T04:53:53.520Z,19.83
2023-04-01T04:56:29.492Z,20.70
2023-04-01T04:59:08.484Z,19.35
2023-04-01T05:01:52.005Z,24.25
2023-04-01T05:04:19.249Z,23.48
2023-04-01T05:06:46.555Z,21.02
2023-04-01T05:09:14.739Z,23.23
2023-04-01T05:11:42.478Z,19.40
2023-04-01T05:14:17.387Z,21.33
2023-04-01T05:16:53.145Z,19.63
2023-04-01T05:19:20.419Z,21.33
2023-04-01T05:21:48.697Z,18.15
2023-04-01T05:24:16.882Z,21.70
2023-04-01T05:26:45.389Z,21.13
2023-04-01T05:29:13.526Z,18.27
2023-04-01T05:31:42.371Z,19.70
2023-04-01T05:34:09.581Z,22.10
2023-04-01T05:36:36.954Z,20.45
2023-04-01T05:39:04.682Z,19.48
2023-04-01T05:41:31.927Z,18.05
2023-04-01T05:43:58.889Z,15.85
2023-04-01T05:46:41.568Z,19.17
2023-04-01T05:49:29.364Z,17.70
2023-04-01T05:51:57.563Z,18.40
2023-04-01T05:54:24.737Z,19.77
2023-04-01T05:56:52.120Z,16.90
2023-04-01T05:59:20.833Z,13.30
2023-04-01T06:01:48.764Z,16.73
2023-04-01T06:04:18.806Z,14.23
2023-04-01T06:06:47.292Z,15.98
2023-04-01T06:09:22.688Z,14.32
2023-04-01T06:11:52.850Z,15.75
2023-04-01T06:14:31.981Z,14.15
2023-04-01T06:17:32.510Z,17.27
2023-04-01T06:20:34.244Z,14.43
2023-04-01T06:23:11.313Z,20.75
2023-04-01T06:26:16.010Z,16.75
2023-04-01T06:28:52.424Z,19.92
2023-04-01T06:31:28.577Z,20.08
2023-04-01T06:34:08.074Z,19.85
2023-04-01T06:36:48.898Z,23.27
2023-04-01T06:39:38.608Z,23.23
2023-04-01T06:42:14.681Z,21.85
2023-04-01T06:44:50.213Z,21.35
2023-04-01T06:47:52.939Z,26.17
2023-04-01T06:50:49.977Z,27.73
2023-04-01T06:54:07.600Z,22.92
2023-04-01T06:56:59.136Z,25.83
2023-04-01T06:59:31.075Z,28.50
2023-04-01T07:02:23.318Z,24.20
2023-04-01T07:04:54.494Z,27.33
2023-04-01T07:07:43.673Z,26.00
2023-04-01T07:10:32.683Z,27.52
2023-04-01T07:13:26.883Z,27.20
2023-04-01T07:16:01.391Z,27.65
2023-04-01T07:18:59.622Z,27.80
2023-04-01T07:21:43.881Z,26.48
2023-04-01T07:24:38.145Z,25.35
2023-04-01T07:27:19.976Z,27.90
2023-04-01T07:29:48.454Z,28.90
2023-04-01T07:32:28.077Z,28.98
2023-04-01T07:37:39.294Z,30.25
2023-04-01T07:40:28.108Z,30.63
2023-04-01T07:43:14.327Z,33.53
2023-04-01T07:45:48.058Z,33.15
2023-04-01T07:48:36.302Z,33.88
2023-04-01T07:51:14.703Z,33.58
2023-04-01T07:53:49.902Z,30.38
2023-04-01T07:56:42.757Z,33.45
2023-04-01T07:59:23.894Z,30.55
2023-04-01T08:02:27.289Z,34.50
2023-04-01T08:05:06.671Z,29.92
2023-04-01T08:07:46.697Z,29.33
2023-04-01T08:10:43.160Z,30.60
2023-04-01T08:13:58.439Z,26.65
2023-04-01T08:16:43.893Z,24.90
2023-04-01T08:19:31.244Z,25.92
2023-04-01T08:22:05.680Z,25.70
2023-04-01T08:24:48.349Z,23.15
2023-04-01T08:27:29.364Z,22.08
2023-04-01T08:30:22.474Z,18.67
2023-04-01T08:33:29.601Z,20.65
2023-04-01T08:36:16.736Z,18.55
2023-04-01T08:38:56.553Z,21.80
2023-04-01T08:41:39.868Z,26.45
2023-04-01T08:45:01.223Z,24.85
2023-04-01T08:47:51.545Z,23.40
2023-04-01T08:50:25.212Z,23.13
2023-04-01T08:53:44.842Z,19.30
2023-04-01T08:56:43.367Z,18.83
2023-04-01T08:59:25.500Z,14.25
2023-04-01T09:02:11.299Z,15.45
2023-04-01T09:05:40.625Z,13.70
2023-04-01T09:08:13.846Z,12.27
2023-04-01T09:11:06.097Z,10.13
2023-04-01T09:14:12.939Z,13.45
2023-04-01T09:17:20.260Z,12.07
2023-04-01T09:20:05.294Z,6.25
2023-04-01T09:22:49.281Z,8.00
2023-04-01T09:25:53.898Z,12.52
2023-04-01T09:28:29.561Z,13.50
2023-04-01T09:31:09.298Z,12.73
2023-04-01T09:34:23.595Z,14.70
2023-04-01T09:37:20.182Z,15.95
2023-04-01T09:40:13.617Z,17.00
2023-04-01T09:45:33.610Z,16.85
2023-04-01T09:48:59.656Z,13.48
2023-04-01T09:51:38.557Z,14.93
2023-04-01T09:54:07.081Z,9.73
2023-04-01T09:56:43.858Z,8.10
2023-04-01T09:59:48.294Z,11.68
2023-04-01T10:02:45.583Z,11.63
2023-04-01T10:05:28.253Z,11.68
2023-04-01T10:08:29.183Z,12.52
2023-04-01T10:11:24.609Z,11.93
2023-04-01T10:14:17.414Z,10.00
2023-04-01T10:17:15.504Z,9.40
2023-04-01T10:20:08.582Z,6.82
2023-04-01T10:23:05.715Z,8.68
2023-04-01T10:26:12.375Z,8.60
2023-04-01T10:29:17.421Z,7.63
2023-04-01T10:32:10.405Z,9.45
2023-04-01T10:35:08.556Z,12.05
2023-04-01T10:37:59.228Z,9.68
2023-04-01T10:40:58.493Z,9.57
2023-04-01T10:43:41.443Z,8.20
2023-04-01T10:46:17.072Z,7.40
2023-04-01T10:49:06.053Z,8.75
2023-04-01T10:52:13.970Z,8.27
2023-04-01T10:55:20.134Z,6.70
2023-04-01T10:58:28.459Z,7.15
2023-04-01T11:01:46.103Z,6.88
2023-04-01T11:05:04.239Z,5.40
2023-04-01T11:08:20.876Z,8.45
2023-04-01T11:10:52.040Z,5.75
2023-04-01T11:14:04.258Z,8.85
2023-04-01T11:16:50.439Z,4.55
2023-04-01T11:19:34.053Z,5.40
2023-04-01T11:22:30.446Z,6.22
2023-04-01T11:25:04.318Z,7.88
2023-04-01T11:28:02.899Z,5.50
2023-04-01T11:31:00.224Z,7.03
2023-04-01T11:34:07.388Z,7.20
2023-04-01T11:36:38.662Z,6.70
2023-04-01T11:39:24.927Z,8.27
2023-04-01T11:42:29.327Z,8.00
2023-04-01T11:45:36.163Z,7.40
2023-04-01T11:48:33.992Z,8.55
2023-04-01T11:51:04.230Z,8.65
2023-04-01T11:53:55.548Z,7.40
2023-04-01T11:56:35.610Z,9.00
2023-04-01T11:59:43.976Z,8.73
2023-04-01T12:02:30.164Z,10.00
2023-04-01T12:05:20.890Z,11.05
2023-04-01T12:08:04.644Z,11.73
2023-04-01T12:10:53.412Z,9.52
2023-04-01T12:13:42.520Z,9.30
2023-04-01T12:16:23.569Z,7.28
2023-04-01T12:19:20.050Z,6.85
2023-04-01T12:22:16.333Z,6.10
2023-04-01T12:24:59.847Z,6.70
2023-04-01T12:27:43.376Z,6.05
2023-04-01T12:30:34.258Z,8.00
2023-04-01T12:33:40.237Z,6.15
2023-04-01T12:36:41.263Z,5.25
2023-04-01T12:39:20.280Z,6.25
2023-04-01T12:41:52.656Z,3.70
2023-04-01T12:44:54.620Z,4.10
2023-04-01T12:47:59.044Z,4.28
2023-04-01T12:50:57.909Z,4.30
2023-04-01T12:53:56.154Z,3.40
2023-04-01T12:56:35.364Z,3.67
2023-04-01T12:59:27.180Z,4.68
2023-04-01T13:01:57.610Z,5.20
2023-04-01T13:05:06.960Z,5.85
2023-04-01T13:08:01.147Z,3.97
2023-04-01T13:10:45.786Z,5.10
2023-04-01T13:13:41.015Z,4.45
2023-04-01T13:16:11.176Z,4.70
2023-04-01T13:18:44.549Z,4.93
2023-04-01T13:21:32.107Z,4.75
2023-04-01T13:24:21.913Z,5.53
2023-04-01T13:27:22.448Z,5.32
2023-04-01T13:30:04.364Z,5.03
2023-04-01T13:35:47.197Z,5.18
2023-04-01T13:38:56.737Z,4.40
2023-04-01T13:41:36.500Z,7.07
2023-04-01T13:44:08.666Z,5.50
2023-04-01T13:46:57.680Z,4.13
2023-04-01T13:49:49.504Z,4.45
2023-04-01T13:52:43.961Z,5.35
2023-04-01T13:55:26.547Z,4.28
2023-04-01T13:58:12.197Z,5.10
2023-04-01T14:01:13.675Z,6.60
2023-04-01T14:04:25.709Z,7.90
2023-04-01T14:06:58.544Z,7.65
2023-04-01T14:09:47.605Z,7.65
2023-04-01T14:12:51.941Z,8.32
2023-04-01T14:15:53.850Z,6.40
2023-04-01T14:18:25.027Z,7.15
2023-04-01T14:21:14.664Z,6.90
2023-04-01T14:24:25.100Z,5.70
2023-04-01T14:27:19.264Z,5.45
2023-04-01T14:30:16.306Z,5.30
2023-04-01T14:33:01.539Z,11.73
2023-04-01T14:35:53.830Z,8.63
2023-04-01T14:38:40.868Z,9.48
2023-04-01T14:41:45.849Z,5.45
2023-04-01T14:44:32.381Z,3.22
2023-04-01T14:46:59.437Z,2.63
2023-04-01T14:49:41.296Z,3.15
2023-04-01T14:52:22.881Z,3.00
2023-04-01T14:54:52.938Z,3.65
2023-04-01T14:57:26.487Z,2.30
2023-04-01T15:00:03.613Z,2.95
2023-04-01T15:03:02.591Z,3.80
2023-04-01T15:06:07.998Z,4.65
2023-04-01T15:08:45.528Z,5.18
2023-04-01T15:11:25.007Z,4.65
2023-04-01T15:14:06.528Z,2.25
2023-04-01T15:17:08.404Z,2.45
2023-04-01T15:19:56.465Z,3.03
2023-04-01T15:23:09.329Z,3.13
2023-04-01T15:25:53.420Z,4.47
2023-04-01T15:28:54.914Z,3.55
2023-04-01T15:31:36.503Z,3.40
2023-04-01T15:34:26.620Z,3.20
2023-04-01T15:37:32.020Z,4.10
2023-04-01T15:40:25.950Z,4.22
2023-04-01T15:42:55.968Z,3.97
2023-04-01T15:45:40.438Z,3.17
2023-04-01T15:48:32.812Z,3.75
2023-04-01T15:51:20.115Z,4.72
2023-04-01T15:53:58.304Z,3.67
2023-04-01T15:56:42.431Z,3.47
2023-04-01T15:59:22.079Z,4.68
2023-04-01T16:04:47.667Z,5.32
2023-04-01T16:07:21.299Z,5.80
2023-04-01T16:10:10.691Z,2.47
2023-04-01T16:12:55.887Z,3.85
2023-04-01T16:15:38.475Z,4.35
2023-04-01T16:18:23.227Z,4.72
2023-04-01T16:21:00.626Z,3.47
2023-04-01T16:23:40.521Z,3.25
2023-04-01T16:26:31.711Z,9.10
2023-04-01T16:29:18.983Z,4.50
2023-04-01T16:32:08.950Z,5.88
2023-04-01T16:34:46.530Z,5.22
2023-04-01T16:37:35.098Z,3.00
2023-04-01T16:40:33.207Z,5.57
2023-04-01T16:43:37.789Z,4.05
2023-04-01T16:46:07.773Z,3.40
2023-04-01T16:49:00.551Z,3.75
2023-04-01T16:51:37.634Z,4.80
2023-04-01T16:54:18.119Z,2.80
2023-04-01T16:57:17.083Z,1.90
2023-04-01T16:59:49.216Z,2.05
2023-04-01T17:02:21.851Z,3.20
2023-04-01T17:04:50.469Z,1.95
2023-04-01T17:07:48.298Z,2.70
2023-04-01T17:10:29.259Z,4.20
2023-04-01T17:13:09.324Z,3.40
2023-04-01T17:15:42.234Z,2.13
2023-04-01T17:18:15.397Z,3.67
2023-04-01T17:21:12.017Z,3.50
2023-04-01T17:23:52.084Z,3.17
2023-04-01T17:26:26.155Z,4.78
2023-04-01T17:28:57.871Z,2.90
2023-04-01T17:31:41.804Z,5.18
2023-04-01T17:34:24.603Z,2.50
2023-04-01T17:37:22.388Z,4.65
2023-04-01T17:40:36.371Z,2.47
2023-04-01T17:43:32.467Z,2.80
2023-04-01T17:46:23.443Z,3.13
2023-04-01T17:49:04.262Z,3.88
2023-04-01T17:51:38.512Z,3.20
2023-04-01T17:54:29.688Z,3.80
2023-04-01T17:56:57.080Z,4.65
2023-04-01T17:59:36.858Z,3.78
2023-04-01T18:02:38.238Z,4.13
2023-04-01T18:05:24.449Z,4.57
2023-04-01T18:08:10.109Z,9.55
2023-04-01T18:11:02.053Z,8.15
2023-04-01T18:13:48.326Z,10.90
2023-04-01T18:16:15.403Z,8.77
2023-04-01T18:19:00.855Z,8.73
2023-04-01T18:21:53.202Z,8.63
2023-04-01T18:24:45.060Z,12.10
2023-04-01T18:27:30.983Z,12.30
2023-04-01T18:30:04.463Z,16.15
2023-04-01T18:32:37.893Z,13.98
2023-04-01T18:35:29.742Z,12.23
2023-04-01T18:38:34.496Z,12.68
2023-04-01T18:41:15.612Z,11.20
2023-04-01T18:44:04.540Z,13.37
2023-04-01T18:47:00.074Z,12.70
2023-04-01T18:49:31.561Z,12.95
2023-04-01T18:52:05.228Z,16.13
2023-04-01T18:54:42.802Z,12.98
2023-04-01T18:57:15.021Z,16.00
2023-04-01T18:59:46.312Z,17.23
2023-04-01T19:02:32.336Z,19.33
2023-04-01T19:05:24.348Z,18.63
2023-04-01T19:07:58.049Z,20.15
2023-04-01T19:10:34.437Z,21.42
2023-04-01T19:13:31.576Z,17.92
2023-04-01T19:16:04.482Z,18.13
2023-04-01T19:18:37.748Z,17.58
2023-04-01T19:21:07.458Z,17.27
2023-04-01T19:24:01.988Z,19.50
2023-04-01T19:26:40.226Z,15.88
2023-04-01T19:29:46.568Z,17.42
2023-04-01T19:32:51.503Z,16.73
2023-04-01T19:35:31.070Z,16.95
2023-04-01T19:38:05.448Z,17.60
2023-04-01T19:40:57.551Z,19.42
2023-04-01T19:46:00.926Z,16.92
2023-04-01T19:49:07.516Z,21.13
2023-04-01T19:51:48.177Z,19.77
2023-04-01T19:54:45.697Z,18.92
2023-04-01T19:57:34.355Z,21.75
2023-04-01T20:00:17.772Z,19.23
2023-04-01T20:02:57.393Z,20.05
2023-04-01T20:05:36.735Z,17.65
2023-04-01T20:08:19.399Z,19.15
2023-04-01T20:11:24.566Z,21.05
2023-04-01T20:13:58.793Z,19.55
2023-04-01T20:16:54.547Z,19.55
2023-04-01T20:19:30.127Z,17.85
2023-04-01T20:22:01.470Z,20.15
2023-04-01T20:24:42.999Z,21.05
2023-04-01T20:27:19.468Z,18.13
2023-04-01T20:30:17.758Z,19.77
2023-04-01T20:33:09.793Z,12.05
2023-04-01T20:36:16.965Z,11.70
2023-04-01T20:39:20.452Z,10.07
2023-04-01T20:41:53.653Z,13.23
2023-04-01T20:44:49.980Z,11.90
2023-04-01T20:47:47.915Z,11.45
2023-04-01T20:51:00.535Z,13.38
2023-04-01T20:53:36.453Z,12.38
2023-04-01T20:56:31.206Z,13.93
2023-04-01T20:59:16.952Z,17.08
2023-04-01T21:02:10.995Z,16.90
2023-04-01T21:05:28.183Z,22.33
2023-04-01T21:08:37.570Z,21.08
2023-04-01T21:11:17.325Z,21.52
2023-04-01T21:13:55.923Z,16.17
2023-04-01T21:16:45.009Z,19.65
2023-04-01T21:19:33.316Z,18.98
2023-04-01T21:22:16.748Z,17.08
2023-04-01T21:24:52.751Z,13.02
2023-04-01T21:27:25.668Z,14.13
2023-04-01T21:30:20.057Z,10.82
2023-04-01T21:33:16.898Z,11.55
2023-04-01T21:36:21.924Z,10.95
2023-04-01T21:38:55.519Z,10.82
2023-04-01T21:41:31.530Z,9.20
2023-04-01T21:44:41.654Z,11.32
2023-04-01T21:48:00.353Z,14.82
2023-04-01T21:50:46.456Z,14.20
2023-04-01T21:53:38.960Z,13.75
2023-04-01T21:56:23.546Z,13.45
2023-04-01T21:59:17.731Z,12.20
2023-04-01T22:02:03.375Z,12.25
2023-04-01T22:04:32.979Z,14.43
2023-04-01T22:07:18.634Z,13.25
2023-04-01T22:10:03.438Z,16.80
2023-04-01T22:12:41.918Z,8.55
2023-04-01T22:15:30.531Z,12.55
2023-04-01T22:18:15.261Z,10.10
2023-04-01T22:20:58.184Z,11.50
2023-04-01T22:23:38.007Z,7.78
2023-04-01T22:26:24.399Z,10.65
2023-04-01T22:29:42.938Z,7.93
2023-04-01T22:32:39.328Z,11.68
2023-04-01T22:35:16.267Z,9.10
2023-04-01T22:37:48.946Z,7.85
2023-04-01T22:40:31.418Z,7.80
2023-04-01T22:43:02.681Z,7.78
2023-04-01T22:45:49.291Z,8.88
2023-04-01T22:48:34.406Z,9.48
2023-04-01T22:51:08.443Z,8.93
2023-04-01T22:53:50.833Z,6.88
2023-04-01T22:56:40.757Z,8.07
2023-04-01T22:59:28.756Z,6.85
2023-04-01T23:02:06.029Z,7.65
2023-04-01T23:04:38.674Z,7.72
2023-04-01T23:07:47.505Z,8.07
2023-04-01T23:10:36.230Z,9.23
2023-04-01T23:13:04.963Z,8.90
2023-04-01T23:15:35.876Z,11.20
2023-04-01T23:20:43.441Z,9.35
2023-04-01T23:23:17.296Z,11.18
2023-04-01T23:25:54.433Z,9.70
2023-04-01T23:28:39.057Z,9.52
2023-04-01T23:31:25.950Z,8.65
2023-04-01T23:34:02.780Z,10.52
2023-04-01T23:36:31.007Z,8.82
2023-04-01T23:39:05.282Z,7.28
2023-04-01T23:41:34.017Z,6.63
2023-04-01T23:44:12.408Z,7.60
2023-04-01T23:46:41.607Z,9.73
2023-04-01T23:49:37.152Z,8.88
2023-04-01T23:52:12.992Z,10.32
2023-04-01T23:54:45.466Z,8.05
2023-04-01T23:57:17.090Z,7.40
2023-04-01T23:59:44.486Z,9.10
